Time;durP1;ratioP1;P1;durP2;ratioP2;P2;SDS_P1;SDS_P2;PMS_P1;PMS_P2;Temp;Humidity;BMP_temperature;BMP_pressure;BME280_temperature;BME280_humidity;BME280_pressure;Samples;Min_cycle;Max_cycle;Signal;HPM_P1;HPM_P2
2021/09/08 00:02:21;;;;;;;171.55;55.20;;;;;;;;;;4925643;28;20044;-79
2021/09/08 00:04:47;;;;;;;171.98;57.08;;;;;;;;;;4949190;28;20038;-79
2021/09/08 00:07:12;;;;;;;174.38;57.90;;;;;;;;;;4947845;28;20035;-79
2021/09/08 00:09:38;;;;;;;161.20;53.60;;;;;;;;;;4946416;28;20046;-80
2021/09/08 00:12:05;;;;;;;175.35;56.60;;;;;;;;;;4948977;28;20118;-79
2021/09/08 00:14:31;;;;;;;180.55;57.67;;;;;;;;;;4946147;28;20508;-80
2021/09/08 00:16:56;;;;;;;179.90;57.10;;;;;;;;;;4942527;28;20040;-79
2021/09/08 00:19:22;;;;;;;183.85;56.78;;;;;;;;;;4942856;28;20034;-79
2021/09/08 00:21:47;;;;;;;183.77;59.13;;;;;;;;;;4946410;28;20060;-79
2021/09/08 00:24:13;;;;;;;172.43;53.97;;;;;;;;;;4949954;28;20030;-79
2021/09/08 00:26:38;;;;;;;177.15;57.08;;;;;;;;;;4944846;28;20035;-79
2021/09/08 00:29:04;;;;;;;160.45;55.47;;;;;;;;;;4947311;28;20035;-80
2021/09/08 00:31:29;;;;;;;171.38;55.53;;;;;;;;;;4943210;28;20415;-79
2021/09/08 00:33:55;;;;;;;167.02;54.92;;;;;;;;;;4930404;28;20055;-79
2021/09/08 00:36:20;;;;;;;168.38;56.58;;;;;;;;;;4945875;28;20090;-80
2021/09/08 00:38:46;;;;;;;164.48;55.15;;;;;;;;;;4949655;28;20031;-79
2021/09/08 00:41:11;;;;;;;181.07;56.28;;;;;;;;;;4943526;28;20026;-79
2021/09/08 00:43:37;;;;;;;179.23;56.58;;;;;;;;;;4942614;28;20106;-79
2021/09/08 00:46:02;;;;;;;165.43;54.75;;;;;;;;;;4930592;29;20031;-79
2021/09/08 00:48:28;;;;;;;178.88;54.13;;;;;;;;;;4948793;28;20069;-79
2021/09/08 00:50:56;;;;;;;158.43;53.10;;;;;;;;;;4925679;29;20036;-79
2021/09/08 00:53:22;;;;;;;170.98;54.20;;;;;;;;;;4947271;28;20063;-79
2021/09/08 00:55:48;;;;;;;166.43;54.90;;;;;;;;;;4940505;28;20028;-79
2021/09/08 00:58:14;;;;;;;184.73;57.38;;;;;;;;;;4950244;28;20084;-79
2021/09/08 01:00:41;;;;;;;171.40;53.70;;;;;;;;;;4944033;28;20042;-79
2021/09/08 01:03:06;;;;;;;186.38;57.17;;;;;;;;;;4947908;28;20031;-79
2021/09/08 01:05:32;;;;;;;180.07;56.05;;;;;;;;;;4941968;28;20031;-79
2021/09/08 01:07:59;;;;;;;165.57;55.70;;;;;;;;;;4945971;28;20090;-79
2021/09/08 01:10:28;;;;;;;174.40;56.15;;;;;;;;;;4944852;28;20193;-79
2021/09/08 01:12:54;;;;;;;171.90;57.25;;;;;;;;;;4945119;28;20057;-79
2021/09/08 01:15:19;;;;;;;176.60;57.78;;;;;;;;;;4938888;28;20481;-79
2021/09/08 01:17:45;;;;;;;171.30;56.50;;;;;;;;;;4947500;28;20043;-79
2021/09/08 01:20:16;;;;;;;183.88;56.22;;;;;;;;;;4944214;28;20065;-79
2021/09/08 01:22:52;;;;;;;172.20;57.17;;;;;;;;;;4945049;28;20027;-79
2021/09/08 01:25:22;;;;;;;178.85;55.67;;;;;;;;;;4943393;28;20034;-79
2021/09/08 01:27:49;;;;;;;168.65;50.78;;;;;;;;;;4946114;28;20027;-79
2021/09/08 01:30:21;;;;;;;176.88;54.28;;;;;;;;;;4941357;28;20113;-79
2021/09/08 01:32:48;;;;;;;163.82;53.63;;;;;;;;;;4946615;28;20058;-79
2021/09/08 01:35:14;;;;;;;156.35;51.55;;;;;;;;;;4942517;28;20058;-79
2021/09/08 01:37:40;;;;;;;157.43;51.40;;;;;;;;;;4949046;28;20061;-79
2021/09/08 01:40:06;;;;;;;160.80;51.88;;;;;;;;;;4944996;28;20631;-79
2021/09/08 01:42:32;;;;;;;177.68;53.35;;;;;;;;;;4938390;28;20043;-79
2021/09/08 01:44:58;;;;;;;172.98;52.75;;;;;;;;;;4946122;28;20032;-79
2021/09/08 01:47:23;;;;;;;168.50;54.33;;;;;;;;;;4916199;29;20215;-80
2021/09/08 01:49:49;;;;;;;157.80;52.83;;;;;;;;;;4943096;28;20031;-79
2021/09/08 01:52:14;;;;;;;156.10;51.58;;;;;;;;;;4929730;28;20031;-79
2021/09/08 01:54:40;;;;;;;157.30;51.15;;;;;;;;;;4947644;28;20047;-79
2021/09/08 01:57:05;;;;;;;166.60;53.10;;;;;;;;;;4920698;28;20051;-79
2021/09/08 01:59:31;;;;;;;164.70;52.40;;;;;;;;;;4945915;28;20094;-79
2021/09/08 02:01:58;;;;;;;169.18;53.92;;;;;;;;;;4944501;28;20662;-79
2021/09/08 02:04:23;;;;;;;158.93;51.90;;;;;;;;;;4938932;28;20023;-79
2021/09/08 02:06:50;;;;;;;155.45;51.50;;;;;;;;;;4944835;28;20143;-79
2021/09/08 02:09:17;;;;;;;146.32;49.63;;;;;;;;;;4939255;28;20078;-79
2021/09/08 02:11:44;;;;;;;151.95;50.97;;;;;;;;;;4941135;28;20037;-80
2021/09/08 02:14:09;;;;;;;156.80;51.58;;;;;;;;;;4948585;28;20039;-79
2021/09/08 02:16:35;;;;;;;151.18;49.53;;;;;;;;;;4942398;28;20596;-79
2021/09/08 02:19:00;;;;;;;135.38;49.90;;;;;;;;;;4946276;28;20047;-80
2021/09/08 02:21:26;;;;;;;146.80;50.10;;;;;;;;;;4939729;28;20027;-79
2021/09/08 02:23:51;;;;;;;140.32;47.97;;;;;;;;;;4938234;28;20047;-79
2021/09/08 02:26:17;;;;;;;150.63;50.10;;;;;;;;;;4925828;28;20028;-80
2021/09/08 02:28:43;;;;;;;155.45;50.80;;;;;;;;;;4929354;29;20054;-79
2021/09/08 02:31:09;;;;;;;151.40;51.17;;;;;;;;;;4941427;28;20106;-79
2021/09/08 02:33:34;;;;;;;143.45;48.95;;;;;;;;;;4945127;28;20091;-79
2021/09/08 02:36:01;;;;;;;151.50;48.92;;;;;;;;;;4947989;28;20117;-79
2021/09/08 02:38:28;;;;;;;156.25;50.13;;;;;;;;;;4949906;28;20110;-79
2021/09/08 02:40:53;;;;;;;152.77;48.70;;;;;;;;;;4943222;28;20039;-80
2021/09/08 02:43:19;;;;;;;131.35;47.05;;;;;;;;;;4943090;28;20047;-78
2021/09/08 02:45:45;;;;;;;143.13;47.05;;;;;;;;;;4944018;28;20590;-79
2021/09/08 02:48:10;;;;;;;158.90;50.40;;;;;;;;;;4946106;28;20105;-78
2021/09/08 02:50:36;;;;;;;147.50;49.53;;;;;;;;;;4927481;29;20063;-78
2021/09/08 02:53:01;;;;;;;160.90;51.97;;;;;;;;;;4936980;28;20552;-79
2021/09/08 02:55:27;;;;;;;142.15;46.20;;;;;;;;;;4925034;29;20640;-78
2021/09/08 02:57:52;;;;;;;134.57;47.08;;;;;;;;;;4947676;28;20028;-78
2021/09/08 03:00:18;;;;;;;143.43;46.30;;;;;;;;;;4925764;29;20453;-78
2021/09/08 03:02:44;;;;;;;129.65;45.35;;;;;;;;;;4951161;28;20646;-78
2021/09/08 03:05:10;;;;;;;136.55;46.92;;;;;;;;;;4944899;28;20836;-78
2021/09/08 03:07:35;;;;;;;143.43;47.00;;;;;;;;;;4944342;28;20671;-78
2021/09/08 03:10:02;;;;;;;140.23;46.28;;;;;;;;;;4955970;28;20103;-78
2021/09/08 03:12:28;;;;;;;131.23;45.75;;;;;;;;;;4951467;28;20035;-78
2021/09/08 03:14:53;;;;;;;114.80;42.05;;;;;;;;;;4945726;28;20036;-78
2021/09/08 03:17:18;;;;;;;109.13;40.83;;;;;;;;;;4944967;28;20058;-79
2021/09/08 03:19:44;;;;;;;110.68;38.65;;;;;;;;;;4928039;29;20162;-78
2021/09/08 03:22:09;;;;;;;111.90;40.00;;;;;;;;;;4941609;28;20042;-78
2021/09/08 03:24:35;;;;;;;106.53;37.83;;;;;;;;;;4944954;28;20031;-78
2021/09/08 03:27:00;;;;;;;97.30;38.65;;;;;;;;;;4953876;28;20039;-78
2021/09/08 03:29:26;;;;;;;102.15;37.03;;;;;;;;;;4943458;28;20074;-78
2021/09/08 03:31:51;;;;;;;93.28;36.30;;;;;;;;;;4945686;28;20061;-78
2021/09/08 03:34:17;;;;;;;95.90;35.42;;;;;;;;;;4927193;29;20066;-78
2021/09/08 03:36:42;;;;;;;95.57;34.00;;;;;;;;;;4947537;28;20435;-78
2021/09/08 03:39:08;;;;;;;88.63;33.28;;;;;;;;;;4939731;28;20031;-78
2021/09/08 03:41:33;;;;;;;86.10;34.42;;;;;;;;;;4947407;28;20626;-78
2021/09/08 03:43:59;;;;;;;92.90;34.03;;;;;;;;;;4950264;28;20028;-79
2021/09/08 03:46:24;;;;;;;84.30;31.60;;;;;;;;;;4946104;28;20061;-78
2021/09/08 03:48:49;;;;;;;86.20;30.10;;;;;;;;;;4947676;28;20042;-78
2021/09/08 03:51:16;;;;;;;80.93;30.45;;;;;;;;;;4943082;28;20117;-78
2021/09/08 03:53:41;;;;;;;87.43;30.95;;;;;;;;;;4942950;28;20141;-78
2021/09/08 03:56:07;;;;;;;81.82;30.70;;;;;;;;;;4942274;28;20045;-79
2021/09/08 03:58:32;;;;;;;76.95;31.23;;;;;;;;;;4947172;28;20080;-78
2021/09/08 04:00:58;;;;;;;81.95;29.67;;;;;;;;;;4950895;28;20058;-78
2021/09/08 04:03:23;;;;;;;81.88;28.50;;;;;;;;;;4948883;28;20035;-79
2021/09/08 04:05:48;;;;;;;81.00;29.77;;;;;;;;;;4941598;28;20028;-79
2021/09/08 04:08:14;;;;;;;72.30;28.65;;;;;;;;;;4955226;28;20026;-79
2021/09/08 04:10:40;;;;;;;69.47;28.25;;;;;;;;;;4941480;28;20051;-79
2021/09/08 04:13:05;;;;;;;84.78;31.95;;;;;;;;;;4928263;28;20498;-78
2021/09/08 04:15:31;;;;;;;74.47;29.65;;;;;;;;;;4940861;28;20040;-78
2021/09/08 04:17:57;;;;;;;71.45;28.30;;;;;;;;;;4932478;28;20038;-78
2021/09/08 04:20:23;;;;;;;78.80;29.38;;;;;;;;;;4944519;28;20512;-78
2021/09/08 04:22:48;;;;;;;81.00;28.95;;;;;;;;;;4946053;28;20023;-78
2021/09/08 04:25:14;;;;;;;80.90;29.05;;;;;;;;;;4947952;28;20032;-79
2021/09/08 04:27:39;;;;;;;73.22;27.52;;;;;;;;;;4933482;28;20140;-78
2021/09/08 04:30:06;;;;;;;78.93;27.70;;;;;;;;;;4947546;28;20089;-78
2021/09/08 04:32:31;;;;;;;81.07;29.17;;;;;;;;;;4943213;28;20777;-78
2021/09/08 04:34:57;;;;;;;74.93;28.10;;;;;;;;;;4927648;28;20040;-78
2021/09/08 04:37:22;;;;;;;84.20;29.48;;;;;;;;;;4948258;28;20139;-78
2021/09/08 04:39:48;;;;;;;86.97;30.83;;;;;;;;;;4949823;28;20586;-79
2021/09/08 04:42:13;;;;;;;93.35;32.58;;;;;;;;;;4945125;28;20019;-78
2021/09/08 04:44:38;;;;;;;85.63;30.42;;;;;;;;;;4930246;28;20077;-78
2021/09/08 04:47:04;;;;;;;83.43;31.42;;;;;;;;;;4930763;28;20102;-78
2021/09/08 04:49:29;;;;;;;83.57;30.80;;;;;;;;;;4947059;28;20496;-79
2021/09/08 04:51:55;;;;;;;83.75;31.33;;;;;;;;;;4926089;28;20409;-78
2021/09/08 04:54:20;;;;;;;85.53;31.08;;;;;;;;;;4949233;28;20631;-78
2021/09/08 04:56:46;;;;;;;87.93;31.02;;;;;;;;;;4944919;28;20039;-78
2021/09/08 04:59:11;;;;;;;82.82;32.30;;;;;;;;;;4923956;28;20043;-78
2021/09/08 05:01:37;;;;;;;88.00;32.83;;;;;;;;;;4941280;28;20031;-79
2021/09/08 05:04:02;;;;;;;103.47;34.78;;;;;;;;;;4942855;28;20070;-78
2021/09/08 05:06:28;;;;;;;100.07;35.53;;;;;;;;;;4948237;28;20024;-78
2021/09/08 05:08:53;;;;;;;99.95;34.13;;;;;;;;;;4948477;28;20035;-78
2021/09/08 05:11:19;;;;;;;98.68;34.40;;;;;;;;;;4945927;28;20043;-78
2021/09/08 05:13:44;;;;;;;88.53;34.63;;;;;;;;;;4945754;28;20686;-78
2021/09/08 05:16:10;;;;;;;92.05;35.17;;;;;;;;;;4927801;28;20035;-78
2021/09/08 05:18:36;;;;;;;94.22;35.83;;;;;;;;;;4942782;28;20098;-78
2021/09/08 05:21:01;;;;;;;99.88;36.20;;;;;;;;;;4940010;28;20067;-78
2021/09/08 05:23:27;;;;;;;104.38;36.55;;;;;;;;;;4912660;29;20035;-79
2021/09/08 05:25:52;;;;;;;108.13;37.22;;;;;;;;;;4948127;28;20123;-78
2021/09/08 05:28:19;;;;;;;106.68;38.95;;;;;;;;;;4943497;28;20039;-78
2021/09/08 05:30:45;;;;;;;101.85;38.45;;;;;;;;;;4945139;28;20037;-78
2021/09/08 05:33:10;;;;;;;99.53;36.25;;;;;;;;;;4947892;28;20047;-78
2021/09/08 05:35:36;;;;;;;103.88;36.25;;;;;;;;;;4939733;28;20039;-79
2021/09/08 05:38:02;;;;;;;100.80;36.72;;;;;;;;;;4948125;28;20460;-78
2021/09/08 05:40:27;;;;;;;104.30;37.25;;;;;;;;;;4940892;28;20042;-78
2021/09/08 05:42:53;;;;;;;101.95;37.67;;;;;;;;;;4945458;28;20041;-78
2021/09/08 05:45:18;;;;;;;95.85;36.97;;;;;;;;;;4931457;29;20043;-78
2021/09/08 05:47:44;;;;;;;110.45;38.17;;;;;;;;;;4942883;28;20039;-79
2021/09/08 05:50:09;;;;;;;100.85;37.45;;;;;;;;;;4938589;28;20039;-79
2021/09/08 05:52:35;;;;;;;104.13;36.90;;;;;;;;;;4946678;28;20035;-78
2021/09/08 05:55:00;;;;;;;97.28;37.10;;;;;;;;;;4938768;28;20074;-78
2021/09/08 05:57:26;;;;;;;96.38;36.17;;;;;;;;;;4943086;28;20086;-78
2021/09/08 05:59:51;;;;;;;98.72;38.67;;;;;;;;;;4949826;28;20408;-78
2021/09/08 06:02:17;;;;;;;98.40;34.53;;;;;;;;;;4939050;28;20402;-78
2021/09/08 06:04:42;;;;;;;90.93;35.20;;;;;;;;;;4940666;28;20031;-78
2021/09/08 06:07:08;;;;;;;95.82;36.22;;;;;;;;;;4949265;28;20031;-79
2021/09/08 06:09:33;;;;;;;115.35;37.13;;;;;;;;;;4942957;28;20669;-79
2021/09/08 06:11:59;;;;;;;94.65;36.15;;;;;;;;;;4950936;28;20046;-78
2021/09/08 06:14:25;;;;;;;104.43;37.60;;;;;;;;;;4944180;28;20035;-78
2021/09/08 06:16:51;;;;;;;92.63;37.22;;;;;;;;;;4949982;28;20076;-78
2021/09/08 06:19:16;;;;;;;91.00;35.38;;;;;;;;;;4949053;28;20035;-78
2021/09/08 06:21:42;;;;;;;116.13;36.55;;;;;;;;;;4952086;28;20489;-78
2021/09/08 06:24:10;;;;;;;105.97;37.55;;;;;;;;;;4937116;28;20063;-78
2021/09/08 06:26:35;;;;;;;92.93;35.17;;;;;;;;;;4955014;28;20040;-78
2021/09/08 06:29:01;;;;;;;97.43;35.45;;;;;;;;;;4916037;29;20039;-79
2021/09/08 06:31:26;;;;;;;94.30;37.53;;;;;;;;;;4935244;28;20122;-78
2021/09/08 06:33:52;;;;;;;104.38;36.88;;;;;;;;;;4944582;28;20047;-76
2021/09/08 06:36:17;;;;;;;104.90;37.13;;;;;;;;;;4942866;28;20039;-78
2021/09/08 06:38:43;;;;;;;90.47;35.60;;;;;;;;;;4944925;28;20444;-78
2021/09/08 06:41:09;;;;;;;97.00;38.17;;;;;;;;;;4940677;28;20031;-78
2021/09/08 06:43:34;;;;;;;97.07;37.22;;;;;;;;;;4941165;28;20190;-78
2021/09/08 06:46:00;;;;;;;97.43;36.15;;;;;;;;;;4929296;29;20118;-78
2021/09/08 06:48:25;;;;;;;104.30;36.80;;;;;;;;;;4909562;29;20039;-78
2021/09/08 06:50:51;;;;;;;98.88;36.28;;;;;;;;;;4940630;28;20040;-78
2021/09/08 06:53:16;;;;;;;96.63;36.45;;;;;;;;;;4940255;28;20302;-78
2021/09/08 06:55:42;;;;;;;91.85;36.25;;;;;;;;;;4939247;28;20585;-78
2021/09/08 06:58:07;;;;;;;103.80;36.65;;;;;;;;;;4928011;28;20027;-78
2021/09/08 07:00:33;;;;;;;101.03;36.65;;;;;;;;;;4950112;28;20069;-78
2021/09/08 07:02:59;;;;;;;99.65;37.08;;;;;;;;;;4937948;28;20040;-79
2021/09/08 07:05:24;;;;;;;97.78;37.58;;;;;;;;;;4943773;28;20043;-79
2021/09/08 07:07:50;;;;;;;97.03;36.45;;;;;;;;;;4943985;28;20045;-78
2021/09/08 07:10:16;;;;;;;104.85;36.92;;;;;;;;;;4941169;28;20042;-78
2021/09/08 07:12:42;;;;;;;94.70;35.72;;;;;;;;;;4933628;28;20031;-78
2021/09/08 07:15:08;;;;;;;95.53;36.10;;;;;;;;;;4943132;28;20022;-79
2021/09/08 07:17:33;;;;;;;108.13;38.15;;;;;;;;;;4937492;28;20036;-79
2021/09/08 07:19:59;;;;;;;105.13;36.38;;;;;;;;;;4941678;28;20388;-79
2021/09/08 07:22:24;;;;;;;100.88;35.47;;;;;;;;;;4949421;28;20042;-78
2021/09/08 07:24:50;;;;;;;111.57;39.83;;;;;;;;;;4944808;28;20043;-79
2021/09/08 07:27:15;;;;;;;108.13;39.75;;;;;;;;;;4951167;28;20049;-79
2021/09/08 07:29:40;;;;;;;104.25;39.10;;;;;;;;;;4943148;28;20094;-78
2021/09/08 07:32:08;;;;;;;103.45;39.40;;;;;;;;;;4929010;29;20554;-78
2021/09/08 07:34:34;;;;;;;104.97;40.70;;;;;;;;;;4945690;28;20114;-78
2021/09/08 07:36:59;;;;;;;111.35;40.78;;;;;;;;;;4953851;28;20032;-78
2021/09/08 07:39:25;;;;;;;121.57;38.95;;;;;;;;;;4946176;28;20031;-79
2021/09/08 07:41:50;;;;;;;125.43;41.17;;;;;;;;;;4950034;28;20472;-79
2021/09/08 07:44:16;;;;;;;110.60;38.47;;;;;;;;;;4947260;28;20058;-78
2021/09/08 07:46:41;;;;;;;112.07;42.63;;;;;;;;;;4947472;28;20035;-78
2021/09/08 07:49:07;;;;;;;114.20;42.50;;;;;;;;;;4944404;28;20038;-78
2021/09/08 07:51:32;;;;;;;130.80;47.00;;;;;;;;;;4933254;29;20573;-78
2021/09/08 07:53:59;;;;;;;147.60;43.55;;;;;;;;;;4943596;28;20089;-77
2021/09/08 07:56:25;;;;;;;129.80;45.25;;;;;;;;;;4949213;28;20023;-80
2021/09/08 07:58:50;;;;;;;114.95;42.85;;;;;;;;;;4939884;28;20119;-80
2021/09/08 08:01:16;;;;;;;119.50;41.78;;;;;;;;;;4953315;28;20122;-79
2021/09/08 08:03:41;;;;;;;128.43;45.08;;;;;;;;;;4942256;28;20697;-79
2021/09/08 08:06:07;;;;;;;99.95;38.88;;;;;;;;;;4955215;28;20058;-79
2021/09/08 08:08:33;;;;;;;124.45;44.95;;;;;;;;;;4929914;28;20036;-79
2021/09/08 08:10:58;;;;;;;116.45;44.03;;;;;;;;;;4952053;28;20058;-80
2021/09/08 08:13:24;;;;;;;119.97;42.78;;;;;;;;;;4947985;28;20023;-79
2021/09/08 08:15:50;;;;;;;111.18;43.58;;;;;;;;;;4934648;28;20532;-79
2021/09/08 08:18:16;;;;;;;122.95;42.58;;;;;;;;;;4948009;28;20036;-79
2021/09/08 08:20:41;;;;;;;114.07;43.60;;;;;;;;;;4950019;28;20130;-79
2021/09/08 08:23:07;;;;;;;114.25;42.08;;;;;;;;;;4949859;28;20550;-79
2021/09/08 08:25:32;;;;;;;123.30;43.60;;;;;;;;;;4950081;28;20488;-79
2021/09/08 08:28:01;;;;;;;124.20;41.75;;;;;;;;;;4931884;29;20038;-79
2021/09/08 08:30:28;;;;;;;140.35;43.53;;;;;;;;;;4946700;28;20122;-79
2021/09/08 08:32:54;;;;;;;134.25;44.50;;;;;;;;;;4946910;28;20416;-79
2021/09/08 08:35:19;;;;;;;129.02;43.95;;;;;;;;;;4947887;28;20540;-79
2021/09/08 08:37:45;;;;;;;139.32;43.17;;;;;;;;;;4949574;28;20126;-79
2021/09/08 08:40:12;;;;;;;112.95;40.30;;;;;;;;;;4947566;28;20066;-79
2021/09/08 08:42:38;;;;;;;111.28;40.28;;;;;;;;;;4949256;28;20035;-80
2021/09/08 08:45:05;;;;;;;130.13;41.47;;;;;;;;;;4954806;28;20042;-79
2021/09/08 08:47:32;;;;;;;126.30;40.35;;;;;;;;;;4948671;28;20059;-79
2021/09/08 08:49:57;;;;;;;110.28;39.50;;;;;;;;;;4949724;28;20081;-79
2021/09/08 08:52:23;;;;;;;108.22;40.10;;;;;;;;;;4953052;28;20101;-79
2021/09/08 08:54:48;;;;;;;112.53;39.85;;;;;;;;;;4946955;28;20630;-79
2021/09/08 08:57:15;;;;;;;95.10;36.55;;;;;;;;;;4947518;28;20038;-80
2021/09/08 08:59:42;;;;;;;97.25;37.15;;;;;;;;;;4949622;28;20034;-79
2021/09/08 09:02:18;;;;;;;92.25;36.50;;;;;;;;;;4946910;28;20497;-79
2021/09/08 09:04:44;;;;;;;90.40;36.10;;;;;;;;;;4947900;28;20039;-79
2021/09/08 09:07:20;;;;;;;91.85;36.33;;;;;;;;;;4921925;28;20060;-79
2021/09/08 09:09:50;;;;;;;92.07;35.78;;;;;;;;;;4949505;28;20093;-79
2021/09/08 09:12:17;;;;;;;84.80;33.83;;;;;;;;;;4929772;28;20038;-79
2021/09/08 09:14:42;;;;;;;83.03;35.97;;;;;;;;;;4945228;28;20042;-79
2021/09/08 09:17:12;;;;;;;90.82;35.00;;;;;;;;;;4932532;28;20035;-79
2021/09/08 09:19:48;;;;;;;85.70;34.42;;;;;;;;;;4949218;28;20023;-79
2021/09/08 09:22:16;;;;;;;87.15;35.13;;;;;;;;;;4948314;28;20097;-79
2021/09/08 09:24:41;;;;;;;114.65;35.75;;;;;;;;;;4947754;28;20034;-79
2021/09/08 09:27:12;;;;;;;93.68;34.35;;;;;;;;;;4936715;28;20031;-79
2021/09/08 09:29:46;;;;;;;76.25;33.72;;;;;;;;;;4944197;28;20023;-80
2021/09/08 09:32:12;;;;;;;88.65;31.75;;;;;;;;;;4951542;28;20493;-80
2021/09/08 09:34:40;;;;;;;87.43;32.38;;;;;;;;;;4953794;28;20078;-79
2021/09/08 09:37:06;;;;;;;87.45;31.08;;;;;;;;;;4947123;28;20634;-79
2021/09/08 09:39:34;;;;;;;75.78;31.40;;;;;;;;;;4950902;28;20050;-80
2021/09/08 09:42:11;;;;;;;66.55;29.38;;;;;;;;;;4949309;28;20114;-79
2021/09/08 09:44:37;;;;;;;63.47;28.65;;;;;;;;;;4943449;28;20511;-79
2021/09/08 09:47:03;;;;;;;61.05;28.10;;;;;;;;;;4946296;28;20046;-79
2021/09/08 09:49:34;;;;;;;55.72;27.15;;;;;;;;;;4943404;28;20027;-79
2021/09/08 09:52:03;;;;;;;55.33;24.23;;;;;;;;;;4944763;28;20028;-80
2021/09/08 09:54:29;;;;;;;55.03;24.48;;;;;;;;;;4944778;28;20047;-80
2021/09/08 09:56:55;;;;;;;51.35;22.55;;;;;;;;;;4946156;28;20035;-79
2021/09/08 09:59:21;;;;;;;56.83;22.83;;;;;;;;;;4932031;28;20087;-79
2021/09/08 10:01:47;;;;;;;53.75;23.70;;;;;;;;;;4942819;28;20038;-79
2021/09/08 10:04:12;;;;;;;54.97;22.63;;;;;;;;;;4953741;28;20043;-79
2021/09/08 10:06:40;;;;;;;52.53;20.40;;;;;;;;;;4943737;28;20170;-80
2021/09/08 10:09:08;;;;;;;43.10;19.15;;;;;;;;;;4943556;28;20066;-80
2021/09/08 10:11:36;;;;;;;39.97;20.30;;;;;;;;;;4944812;28;20035;-79
2021/09/08 10:14:10;;;;;;;50.42;18.67;;;;;;;;;;4949702;28;20035;-80
2021/09/08 10:16:36;;;;;;;46.15;20.42;;;;;;;;;;4940288;28;20504;-79
2021/09/08 10:19:04;;;;;;;38.60;17.77;;;;;;;;;;4941804;28;20748;-79
2021/09/08 10:21:29;;;;;;;38.58;19.15;;;;;;;;;;4949918;28;20031;-80
2021/09/08 10:24:02;;;;;;;40.40;18.55;;;;;;;;;;4947157;28;20099;-80
2021/09/08 10:26:29;;;;;;;48.17;20.23;;;;;;;;;;4931356;29;20035;-80
2021/09/08 10:29:04;;;;;;;36.03;18.15;;;;;;;;;;4938737;28;20115;-80
2021/09/08 10:31:31;;;;;;;39.60;17.08;;;;;;;;;;4945218;28;20031;-80
2021/09/08 10:33:57;;;;;;;41.10;17.08;;;;;;;;;;4948549;28;20035;-79
2021/09/08 10:36:23;;;;;;;35.42;17.35;;;;;;;;;;4937016;28;20123;-80
2021/09/08 10:39:21;;;;;;;31.15;15.88;;;;;;;;;;4932028;29;20649;-80
2021/09/08 10:41:49;;;;;;;40.97;16.45;;;;;;;;;;4945151;28;20053;-80
2021/09/08 10:44:18;;;;;;;37.70;16.83;;;;;;;;;;4946644;28;20054;-80
2021/09/08 10:46:57;;;;;;;32.55;17.70;;;;;;;;;;4946966;28;20067;-80
2021/09/08 10:49:40;;;;;;;32.28;15.98;;;;;;;;;;4943994;28;20417;-81
2021/09/08 10:52:07;;;;;;;34.38;17.25;;;;;;;;;;4945384;28;20171;-80
2021/09/08 10:54:56;;;;;;;40.92;18.00;;;;;;;;;;4946305;28;20044;-79
2021/09/08 10:57:49;;;;;;;41.35;18.30;;;;;;;;;;4950451;28;20066;-80
2021/09/08 11:00:31;;;;;;;37.03;17.50;;;;;;;;;;4948026;28;20452;-79
2021/09/08 11:02:57;;;;;;;38.40;18.60;;;;;;;;;;4947346;28;21425;-80
2021/09/08 11:05:23;;;;;;;37.67;16.92;;;;;;;;;;4948905;28;20023;-80
2021/09/08 11:07:50;;;;;;;38.03;17.20;;;;;;;;;;4933909;28;20049;-79
2021/09/08 11:10:34;;;;;;;42.75;16.67;;;;;;;;;;4948699;28;20102;-80
2021/09/08 11:13:01;;;;;;;40.60;17.85;;;;;;;;;;4946983;28;20118;-80
2021/09/08 11:15:38;;;;;;;43.10;17.48;;;;;;;;;;4950012;28;20031;-79
2021/09/08 11:18:13;;;;;;;42.25;16.92;;;;;;;;;;4950740;28;20031;-79
2021/09/08 11:20:39;;;;;;;50.53;17.38;;;;;;;;;;4950114;28;20051;-79
2021/09/08 11:23:09;;;;;;;49.30;17.33;;;;;;;;;;4951217;28;20033;-82
2021/09/08 11:25:40;;;;;;;33.92;16.55;;;;;;;;;;4946036;28;20035;-79
2021/09/08 11:28:07;;;;;;;35.05;15.77;;;;;;;;;;4945870;28;20031;-80
2021/09/08 11:30:35;;;;;;;37.28;17.05;;;;;;;;;;4946285;28;20042;-80
2021/09/08 11:33:12;;;;;;;52.75;16.50;;;;;;;;;;4953491;28;20040;-79
2021/09/08 11:35:42;;;;;;;31.25;16.13;;;;;;;;;;4936123;28;20111;-80
2021/09/08 11:38:09;;;;;;;31.20;15.65;;;;;;;;;;4946294;28;20055;-79
2021/09/08 11:40:35;;;;;;;29.27;15.57;;;;;;;;;;4950210;28;20031;-79
2021/09/08 11:43:00;;;;;;;28.83;13.93;;;;;;;;;;4949121;28;20183;-79
2021/09/08 11:45:28;;;;;;;40.05;14.73;;;;;;;;;;4942485;28;20083;-78
2021/09/08 11:47:53;;;;;;;43.03;15.82;;;;;;;;;;4950099;28;20035;-78
2021/09/08 11:50:19;;;;;;;32.92;14.40;;;;;;;;;;4950199;28;20078;-79
2021/09/08 11:52:45;;;;;;;40.47;14.82;;;;;;;;;;4947292;28;20063;-79
2021/09/08 11:55:38;;;;;;;32.38;14.27;;;;;;;;;;4944128;28;20060;-78
2021/09/08 11:58:20;;;;;;;40.22;14.32;;;;;;;;;;4949129;28;20034;-78
2021/09/08 12:00:55;;;;;;;;;;;;;;;;;;4952965;28;20078;-82
2021/09/08 12:03:21;;;;;;;33.33;14.10;;;;;;;;;;4948747;28;19923;-79
2021/09/08 12:05:49;;;;;;;48.00;14.48;;;;;;;;;;4943550;28;20030;-78
2021/09/08 12:08:21;;;;;;;37.85;16.08;;;;;;;;;;4944723;28;20032;-77
2021/09/08 12:10:49;;;;;;;28.02;13.45;;;;;;;;;;4941233;28;20114;-79
2021/09/08 12:13:33;;;;;;;36.40;16.73;;;;;;;;;;4922527;28;20019;-78
2021/09/08 12:16:00;;;;;;;32.72;14.32;;;;;;;;;;4942561;28;20058;-78
2021/09/08 12:18:25;;;;;;;34.10;13.90;;;;;;;;;;4943646;28;20082;-77
2021/09/08 12:21:14;;;;;;;36.95;13.48;;;;;;;;;;4912997;29;20039;-79
2021/09/08 12:23:39;;;;;;;39.03;13.90;;;;;;;;;;4947882;28;20047;-78
2021/09/08 12:26:08;;;;;;;30.95;12.85;;;;;;;;;;4941605;28;20070;-78
2021/09/08 12:28:34;;;;;;;35.72;14.18;;;;;;;;;;4940715;28;20030;-78
2021/09/08 12:31:20;;;;;;;30.38;13.70;;;;;;;;;;4941560;28;20032;-78
2021/09/08 12:33:56;;;;;;;42.00;14.57;;;;;;;;;;4945938;28;20102;-78
2021/09/08 12:36:22;;;;;;;33.00;12.82;;;;;;;;;;4944755;28;20027;-79
2021/09/08 12:38:56;;;;;;;30.23;12.63;;;;;;;;;;4947808;28;20042;-78
2021/09/08 12:41:24;;;;;;;27.48;14.15;;;;;;;;;;4947632;28;20158;-78
2021/09/08 12:43:52;;;;;;;28.50;13.43;;;;;;;;;;4950191;28;20042;-78
2021/09/08 12:46:35;;;;;;;29.60;12.60;;;;;;;;;;4950121;28;20497;-78
2021/09/08 12:49:01;;;;;;;26.20;12.52;;;;;;;;;;4942962;28;20662;-78
2021/09/08 12:51:26;;;;;;;31.60;13.00;;;;;;;;;;4941104;28;20109;-78
2021/09/08 12:53:52;;;;;;;23.05;12.70;;;;;;;;;;4941470;28;20059;-80
2021/09/08 12:56:17;;;;;;;26.02;12.80;;;;;;;;;;4928548;29;20027;-78
2021/09/08 12:58:43;;;;;;;28.77;13.05;;;;;;;;;;4945142;28;20050;-78
2021/09/08 13:01:08;;;;;;;37.28;12.68;;;;;;;;;;4941580;28;20507;-78
2021/09/08 13:03:34;;;;;;;28.95;13.13;;;;;;;;;;4921534;28;20036;-79
2021/09/08 13:05:59;;;;;;;30.30;12.23;;;;;;;;;;4941041;28;20594;-78
2021/09/08 13:08:25;;;;;;;30.42;11.93;;;;;;;;;;4945303;28;20043;-78
2021/09/08 13:10:50;;;;;;;32.45;13.38;;;;;;;;;;4947655;28;20043;-78
2021/09/08 13:13:16;;;;;;;28.00;12.90;;;;;;;;;;4942207;28;20025;-78
2021/09/08 13:15:43;;;;;;;36.50;13.15;;;;;;;;;;4945982;28;20031;-78
2021/09/08 13:18:09;;;;;;;28.85;12.88;;;;;;;;;;4940485;28;20046;-78
2021/09/08 13:20:34;;;;;;;30.95;13.82;;;;;;;;;;4954668;28;20034;-77
2021/09/08 13:23:00;;;;;;;25.63;12.50;;;;;;;;;;4930857;29;20515;-77
2021/09/08 13:25:26;;;;;;;32.42;12.75;;;;;;;;;;4955497;28;20101;-78
2021/09/08 13:27:51;;;;;;;24.40;12.15;;;;;;;;;;4942572;28;20034;-78
2021/09/08 13:30:17;;;;;;;28.40;12.15;;;;;;;;;;4946187;28;20035;-78
2021/09/08 13:32:42;;;;;;;40.42;13.68;;;;;;;;;;4950940;28;20072;-78
2021/09/08 13:35:08;;;;;;;36.45;12.75;;;;;;;;;;4952282;28;20114;-78
2021/09/08 13:37:34;;;;;;;35.17;13.82;;;;;;;;;;4948042;28;20097;-78
2021/09/08 13:39:59;;;;;;;63.75;15.07;;;;;;;;;;4953983;28;20055;-78
2021/09/08 13:42:26;;;;;;;82.95;14.68;;;;;;;;;;4915716;29;20485;-78
2021/09/08 13:44:52;;;;;;;53.70;13.85;;;;;;;;;;4952475;28;20042;-78
2021/09/08 13:47:17;;;;;;;39.15;13.40;;;;;;;;;;4936317;28;20044;-78
2021/09/08 13:49:43;;;;;;;28.08;13.10;;;;;;;;;;4935257;28;20035;-78
2021/09/08 13:52:08;;;;;;;34.72;12.43;;;;;;;;;;4960019;28;20031;-78
2021/09/08 13:54:34;;;;;;;28.73;11.52;;;;;;;;;;4941176;28;20089;-79
2021/09/08 13:57:01;;;;;;;23.00;12.02;;;;;;;;;;4929317;28;20520;-81
2021/09/08 13:59:27;;;;;;;27.42;11.73;;;;;;;;;;4944026;28;20048;-79
2021/09/08 14:01:55;;;;;;;28.00;10.38;;;;;;;;;;4923209;28;20125;-79
2021/09/08 14:04:20;;;;;;;25.45;11.00;;;;;;;;;;4946071;28;20062;-79
2021/09/08 14:06:46;;;;;;;23.70;10.98;;;;;;;;;;4946914;28;20078;-79
2021/09/08 14:09:11;;;;;;;25.30;11.10;;;;;;;;;;4950880;28;20039;-79
2021/09/08 14:11:36;;;;;;;29.90;10.95;;;;;;;;;;4948545;28;20069;-79